Time;durP1;ratioP1;P1;durP2;ratioP2;P2;SDS_P1;SDS_P2;PMS_P1;PMS_P2;Temp;Humidity;BMP_temperature;BMP_pressure;BME280_temperature;BME280_humidity;BME280_pressure;Samples;Min_cycle;Max_cycle;Signal;HPM_P1;HPM_P2
2021/06/06 00:00:15;;;;;;;10.78;9.68;;;;;;;17.64;100.00;98618.22;3656292;79;43495;-23
2021/06/06 00:05:23;;;;;;;13.05;11.65;;;;;;;17.65;100.00;98623.98;3639323;79;44047;-23
2021/06/06 00:10:28;;;;;;;11.85;10.63;;;;;;;17.66;100.00;98626.50;3650034;79;43694;-23
2021/06/06 00:15:35;;;;;;;10.55;9.38;;;;;;;17.69;100.00;98629.36;3649224;79;43345;-24
2021/06/06 00:20:42;;;;;;;15.85;12.80;;;;;;;17.68;100.00;98620.86;3654235;79;43710;-23
2021/06/06 00:25:48;;;;;;;14.58;12.90;;;;;;;17.52;100.00;98622.88;3644937;79;44173;-23
2021/06/06 00:30:54;;;;;;;16.07;14.35;;;;;;;17.43;100.00;98621.36;3643936;79;43506;-23
2021/06/06 00:36:00;;;;;;;15.38;13.25;;;;;;;17.32;100.00;98618.67;3619851;79;43661;-24
2021/06/06 00:41:08;;;;;;;14.98;13.50;;;;;;;17.30;100.00;98619.39;3591626;81;43412;-23
2021/06/06 00:46:16;;;;;;;16.93;13.98;;;;;;;17.27;100.00;98618.45;3607291;80;43996;-23
2021/06/06 00:51:27;;;;;;;16.97;14.33;;;;;;;17.22;100.00;98623.13;3628082;81;26473;-23
2021/06/06 00:56:34;;;;;;;20.75;16.55;;;;;;;17.20;100.00;98622.48;3604222;81;43082;-22
2021/06/06 01:01:41;;;;;;;20.00;16.48;;;;;;;17.19;100.00;98621.30;3523709;82;44078;-22
2021/06/06 01:06:50;;;;;;;18.60;15.18;;;;;;;17.16;100.00;98621.19;3517257;82;43697;-22
2021/06/06 01:12:02;;;;;;;18.25;14.78;;;;;;;17.12;100.00;98621.26;3599498;81;43996;-22
2021/06/06 01:17:12;;;;;;;17.75;15.45;;;;;;;17.14;100.00;98625.98;3608428;80;26450;-22
2021/06/06 01:22:32;;;;;;;16.62;14.80;;;;;;;17.13;100.00;98622.94;3606926;81;43302;-23
2021/06/06 01:32:57;;;;;;;18.25;15.03;;;;;;;17.18;100.00;98625.92;3970162;73;27189;-22
2021/06/06 01:43:20;;;;;;;17.17;14.95;;;;;;;17.19;100.00;98632.20;3963344;73;27200;-22
2021/06/06 01:48:29;;;;;;;16.73;14.30;;;;;;;17.14;100.00;98629.25;3927488;75;26768;-23
2021/06/06 01:53:37;;;;;;;15.28;13.68;;;;;;;17.15;100.00;98636.37;3917171;73;43669;-23
2021/06/06 02:03:59;;;;;;;18.30;14.98;;;;;;;17.20;100.00;98627.94;4002262;73;27213;-21
2021/06/06 02:09:10;;;;;;;18.40;15.58;;;;;;;17.12;100.00;98627.23;3928946;73;26310;-23
2021/06/06 02:14:20;;;;;;;19.67;15.50;;;;;;;17.13;100.00;98631.11;3918191;73;26681;-23
2021/06/06 02:24:43;;;;;;;18.62;14.40;;;;;;;17.21;100.00;98630.12;3991000;73;27874;-22
2021/06/06 02:29:58;;;;;;;18.92;15.70;;;;;;;17.19;100.00;98635.77;3887848;74;43173;-22
2021/06/06 02:35:11;;;;;;;20.23;15.63;;;;;;;17.18;100.00;98630.51;3929012;74;26312;-22
2021/06/06 02:45:34;;;;;;;17.85;14.10;;;;;;;17.20;100.00;98630.66;4003294;72;27636;-22
2021/06/06 02:50:45;;;;;;;15.93;13.68;;;;;;;17.15;100.00;98629.03;3920285;74;26312;-21
2021/06/06 02:55:55;;;;;;;18.80;12.50;;;;;;;17.18;100.00;98633.23;3927047;73;43401;-23
2021/06/06 03:01:04;;;;;;;14.28;12.55;;;;;;;17.21;100.00;98630.12;3911262;73;43424;-22
2021/06/06 03:06:16;;;;;;;14.90;12.28;;;;;;;17.23;100.00;98637.04;3930628;75;26313;-22
2021/06/06 03:11:24;;;;;;;16.93;13.98;;;;;;;17.27;100.00;98633.92;3928631;75;44596;-22
2021/06/06 03:16:35;;;;;;;16.17;13.20;;;;;;;17.26;100.00;98630.38;3925005;73;43453;-23
2021/06/06 03:21:46;;;;;;;17.35;14.35;;;;;;;17.18;100.00;98636.81;3930129;73;44197;-23
2021/06/06 03:26:53;;;;;;;19.85;14.98;;;;;;;17.15;100.00;98629.57;3920315;73;43741;-22
2021/06/06 03:32:04;;;;;;;17.35;14.53;;;;;;;17.09;100.00;98629.84;3925285;73;44023;-23
2021/06/06 03:37:09;;;;;;;18.48;14.60;;;;;;;17.04;100.00;98632.30;3915480;73;44007;-23
2021/06/06 03:42:32;;;;;;;17.57;14.87;;;;;;;17.01;100.00;98632.70;3914974;73;26826;-23
2021/06/06 03:47:40;;;;;;;18.90;14.73;;;;;;;17.00;100.00;98631.87;3894001;74;42811;-23
2021/06/06 03:52:46;;;;;;;16.02;14.15;;;;;;;16.99;100.00;98626.63;3901601;74;44035;-23
2021/06/06 03:57:53;;;;;;;18.23;14.60;;;;;;;16.99;100.00;98625.27;3896336;75;43677;-23
2021/06/06 04:03:01;;;;;;;18.62;14.60;;;;;;;16.98;100.00;98628.50;3888401;74;43988;-23
2021/06/06 04:08:10;;;;;;;18.52;13.85;;;;;;;16.99;100.00;98622.02;3901896;75;26626;-23
2021/06/06 04:13:18;;;;;;;18.55;14.68;;;;;;;16.99;100.00;98623.91;3886378;74;26901;-23
2021/06/06 04:18:27;;;;;;;20.48;14.43;;;;;;;17.01;100.00;98627.25;3886889;74;43686;-23
2021/06/06 04:23:35;;;;;;;21.70;15.20;;;;;;;17.01;100.00;98628.61;3899592;75;43372;-23
2021/06/06 04:28:44;;;;;;;17.85;14.65;;;;;;;17.00;100.00;98620.13;3905107;74;43474;-23
2021/06/06 04:33:51;;;;;;;18.37;14.60;;;;;;;17.03;100.00;98627.90;3905219;74;26298;-23
2021/06/06 04:38:58;;;;;;;21.55;15.85;;;;;;;17.09;100.00;98624.41;3903217;75;43685;-23
2021/06/06 04:44:06;;;;;;;27.10;18.35;;;;;;;17.16;100.00;98629.36;3901791;74;26442;-23
2021/06/06 04:49:14;;;;;;;26.85;17.87;;;;;;;17.14;100.00;98629.25;3906873;74;44156;-24
2021/06/06 04:54:24;;;;;;;21.65;16.25;;;;;;;17.25;100.00;98630.05;3762440;78;26837;-24
2021/06/06 04:59:31;;;;;;;27.10;18.67;;;;;;;17.34;100.00;98632.11;3900710;74;43453;-23
2021/06/06 05:04:37;;;;;;;33.80;22.22;;;;;;;17.44;100.00;98640.75;3905307;74;44075;-23
2021/06/06 05:09:44;;;;;;;33.33;22.93;;;;;;;17.54;100.00;98634.41;3895664;75;43721;-23
2021/06/06 05:14:50;;;;;;;29.23;20.02;;;;;;;17.53;100.00;98637.32;3909031;74;44058;-23
2021/06/06 05:19:56;;;;;;;35.48;22.70;;;;;;;17.65;100.00;98645.78;3903501;75;44081;-23
2021/06/06 05:25:02;;;;;;;33.78;24.55;;;;;;;17.75;100.00;98646.25;3894192;74;44435;-24
2021/06/06 05:30:14;;;;;;;30.92;22.93;;;;;;;17.88;100.00;98646.81;3903966;74;26862;-23
2021/06/06 05:35:22;;;;;;;37.58;24.70;;;;;;;17.98;100.00;98649.20;3913467;74;43342;-23
2021/06/06 05:40:31;;;;;;;27.45;21.00;;;;;;;18.12;100.00;98650.94;3899663;74;43210;-24
2021/06/06 05:45:37;;;;;;;27.60;21.35;;;;;;;18.19;100.00;98645.51;3913099;74;43964;-24
2021/06/06 05:50:46;;;;;;;29.52;22.22;;;;;;;18.23;100.00;98648.12;3906916;75;44051;-23
2021/06/06 05:56:05;;;;;;;29.35;22.27;;;;;;;18.31;100.00;98647.09;3901137;74;26866;-23
2021/06/06 06:01:14;;;;;;;27.90;22.15;;;;;;;18.41;100.00;98648.90;3915023;74;44212;-23
2021/06/06 06:06:20;;;;;;;25.72;21.30;;;;;;;18.45;100.00;98650.18;3907461;75;44533;-23
2021/06/06 06:11:28;;;;;;;27.82;22.00;;;;;;;18.46;100.00;98655.95;3909881;74;43983;-23
2021/06/06 06:16:38;;;;;;;28.90;22.60;;;;;;;18.42;100.00;98662.03;3888287;74;44003;-23
2021/06/06 06:21:44;;;;;;;27.35;22.87;;;;;;;18.14;100.00;98662.48;3907717;75;44375;-24
2021/06/06 06:26:50;;;;;;;25.05;20.52;;;;;;;18.15;100.00;98663.31;3902662;74;43694;-23
2021/06/06 06:31:59;;;;;;;25.43;21.25;;;;;;;18.25;100.00;98671.12;3904455;74;27691;-23
2021/06/06 06:37:12;;;;;;;26.40;21.70;;;;;;;18.34;100.00;98671.24;3904116;75;26466;-23
2021/06/06 06:42:19;;;;;;;34.80;26.10;;;;;;;18.38;100.00;98672.52;3906236;74;44106;-23
2021/06/06 06:47:25;;;;;;;37.33;25.68;;;;;;;18.35;100.00;98674.29;3906280;74;43759;-23
2021/06/06 06:52:36;;;;;;;43.25;29.63;;;;;;;18.29;100.00;98669.64;3884250;75;42869;-23
2021/06/06 06:57:39;;;;;;;39.40;27.67;;;;;;;18.14;100.00;98665.22;3908080;74;43726;-24
2021/06/06 07:02:45;;;;;;;39.08;27.52;;;;;;;18.08;100.00;98659.73;3898486;74;44041;-23
2021/06/06 07:07:52;;;;;;;45.65;29.85;;;;;;;18.12;100.00;98660.48;3888624;75;43697;-23
2021/06/06 07:12:58;;;;;;;46.00;30.45;;;;;;;18.21;100.00;98661.66;3884016;74;44102;-23
2021/06/06 07:18:08;;;;;;;45.15;30.97;;;;;;;18.33;100.00;98668.20;3895340;74;44031;-24
2021/06/06 07:23:14;;;;;;;37.48;26.45;;;;;;;18.45;100.00;98677.46;3884708;75;43730;-24
2021/06/06 07:28:23;;;;;;;30.92;22.85;;;;;;;18.64;100.00;98682.64;3807898;77;44649;-24
2021/06/06 07:33:33;;;;;;;35.80;26.23;;;;;;;18.66;100.00;98686.52;3891923;74;43653;-24
2021/06/06 07:38:39;;;;;;;37.48;25.75;;;;;;;18.64;100.00;98686.73;3896767;75;43677;-23
2021/06/06 07:43:46;;;;;;;32.50;23.95;;;;;;;18.51;100.00;98689.97;3900197;74;44060;-23
2021/06/06 07:48:53;;;;;;;32.80;24.02;;;;;;;18.38;100.00;98681.21;3897885;74;44397;-23
2021/06/06 07:54:00;;;;;;;27.82;21.90;;;;;;;18.74;100.00;98685.48;3893285;75;43393;-23
2021/06/06 07:59:06;;;;;;;27.70;21.80;;;;;;;18.83;100.00;98688.33;3905888;74;43046;-24
2021/06/06 08:04:12;;;;;;;25.32;19.75;;;;;;;19.02;100.00;98697.61;3897591;74;44024;-23
2021/06/06 08:09:18;;;;;;;20.88;18.25;;;;;;;19.24;100.00;98695.52;3894687;75;42903;-24
2021/06/06 08:14:24;;;;;;;21.77;17.20;;;;;;;19.39;100.00;98696.66;3892587;74;44745;-22
2021/06/06 08:19:30;;;;;;;16.15;14.33;;;;;;;19.53;100.00;98699.38;3901665;74;43298;-24
2021/06/06 08:24:36;;;;;;;15.98;14.38;;;;;;;19.71;100.00;98705.00;3917290;75;43696;-23
2021/06/06 08:34:55;;;;;;;14.70;13.03;;;;;;;19.88;100.00;98708.69;3971320;73;27604;-22
2021/06/06 08:40:03;;;;;;;14.18;12.88;;;;;;;20.03;100.00;98708.96;3820532;76;43469;-24
2021/06/06 08:45:13;;;;;;;12.55;11.35;;;;;;;20.06;100.00;98703.03;3900808;74;44550;-24
2021/06/06 08:50:22;;;;;;;18.82;16.12;;;;;;;20.17;100.00;98705.09;3905532;74;43434;-24
2021/06/06 08:55:36;;;;;;;20.50;18.30;;;;;;;20.19;100.00;98710.37;3901778;75;44086;-24
2021/06/06 09:00:45;;;;;;;20.23;17.45;;;;;;;20.06;100.00;98709.88;3906572;74;43588;-23
2021/06/06 09:11:12;;;;;;;16.60;15.00;;;;;;;20.05;100.00;98707.68;4003530;72;27126;-21
2021/06/06 09:16:22;;;;;;;18.98;16.93;;;;;;;20.29;100.00;98703.36;3915971;73;43645;-24
2021/06/06 09:21:28;;;;;;;19.27;16.77;;;;;;;20.48;100.00;98712.52;3936086;73;44121;-24
2021/06/06 09:26:34;;;;;;;20.00;17.73;;;;;;;20.64;100.00;98707.06;3921721;73;44074;-23
2021/06/06 09:37:07;;;;;;;16.40;14.78;;;;;;;20.94;100.00;98705.13;3971561;73;27149;-22
2021/06/06 09:42:29;;;;;;;15.88;14.38;;;;;;;21.21;100.00;98702.69;3986608;73;43279;-22
2021/06/06 09:47:35;;;;;;;16.37;14.70;;;;;;;21.50;100.00;98706.64;3977187;73;43626;-22
2021/06/06 09:57:56;;;;;;;13.70;12.47;;;;;;;21.66;100.00;98704.42;3978171;73;27195;-22
2021/06/06 10:03:06;;;;;;;14.33;12.70;;;;;;;21.95;100.00;98706.95;3906565;74;43693;-24
2021/06/06 10:13:33;;;;;;;12.78;10.80;;;;;;;22.21;100.00;98697.25;4015629;72;27153;-22
2021/06/06 10:18:42;;;;;;;12.33;10.78;;;;;;;22.56;100.00;98703.47;3964490;73;43748;-24
2021/06/06 10:23:51;;;;;;;11.50;10.32;;;;;;;22.88;100.00;98707.32;3966679;73;43726;-25
2021/06/06 10:28:59;;;;;;;13.50;12.28;;;;;;;22.93;100.00;98712.96;3964887;73;44009;-23
2021/06/06 10:39:23;;;;;;;18.65;16.65;;;;;;;22.61;100.00;98707.73;3964633;73;27192;-24
2021/06/06 10:44:33;;;;;;;18.40;16.60;;;;;;;22.65;100.00;98718.53;3915271;74;44189;-25
2021/06/06 10:54:57;;;;;;;20.12;18.02;;;;;;;22.42;100.00;98709.69;3971430;73;27287;-22
2021/06/06 11:05:46;;;;;;;19.98;17.95;;;;;;;22.61;100.00;98709.94;3957263;73;27275;-22
2021/06/06 11:10:53;;;;;;;19.10;17.20;;;;;;;22.84;100.00;98711.08;3926509;73;43627;-25
2021/06/06 11:16:02;;;;;;;21.45;19.17;;;;;;;22.76;100.00;98709.50;3926162;73;43713;-25
2021/06/06 11:21:09;;;;;;;23.18;20.77;;;;;;;22.47;100.00;98702.94;3933122;73;43774;-24
2021/06/06 11:26:22;;;;;;;22.95;20.57;;;;;;;22.67;100.00;98698.55;3922367;73;44415;-25
2021/06/06 11:31:31;;;;;;;26.73;22.50;;;;;;;22.84;100.00;98691.03;3918059;73;43322;-24
2021/06/06 11:36:40;;;;;;;24.90;22.40;;;;;;;23.13;100.00;98689.30;3934025;73;44085;-24
2021/06/06 11:41:47;;;;;;;23.57;21.17;;;;;;;22.93;100.00;98687.69;3926941;73;44054;-24
2021/06/06 11:46:57;;;;;;;25.15;22.65;;;;;;;23.31;100.00;98688.39;3927728;73;43949;-24
2021/06/06 11:52:09;;;;;;;25.25;22.70;;;;;;;23.50;100.00;98682.76;3925339;73;43447;-23
2021/06/06 11:57:19;;;;;;;24.00;21.60;;;;;;;23.34;100.00;98682.94;3941605;73;43631;-24
2021/06/06 12:02:28;;;;;;;19.65;17.77;;;;;;;23.57;100.00;98678.52;3931784;73;44084;-24
2021/06/06 12:07:35;;;;;;;21.33;19.12;;;;;;;23.86;100.00;98676.68;3944393;73;43230;-23
2021/06/06 12:12:43;;;;;;;20.43;18.52;;;;;;;24.04;100.00;98668.84;3943912;73;42987;-23
2021/06/06 12:17:51;;;;;;;19.62;17.82;;;;;;;24.37;100.00;98670.59;3917798;73;43722;-23
2021/06/06 12:28:22;;;;;;;16.42;14.83;;;;;;;24.89;96.03;98651.17;3976039;73;27211;-22
2021/06/06 12:38:48;;;;;;;15.72;14.33;;;;;;;24.61;94.23;98644.61;4000862;72;27194;-23
2021/06/06 12:43:56;;;;;;;15.80;14.35;;;;;;;25.12;100.00;98655.41;3923020;73;43687;-24
2021/06/06 12:49:08;;;;;;;13.70;12.50;;;;;;;24.90;100.00;98641.00;3917821;75;43005;-23
2021/06/06 12:54:19;;;;;;;17.07;15.45;;;;;;;25.16;92.01;98636.73;3903466;73;43365;-25
2021/06/06 12:59:28;;;;;;;15.25;13.75;;;;;;;25.38;90.62;98629.05;3900450;73;43361;-24
2021/06/06 13:04:34;;;;;;;16.57;15.18;;;;;;;25.43;92.11;98633.83;3907018;75;44073;-24
2021/06/06 13:15:03;;;;;;;20.00;18.20;;;;;;;24.05;88.02;98633.91;3952317;73;27287;-23
2021/06/06 13:25:42;;;;;;;19.10;17.35;;;;;;;23.76;91.63;98643.45;3992946;72;28403;-23
2021/06/06 13:36:02;;;;;;;17.25;15.65;;;;;;;23.60;92.06;98647.23;3961893;72;27732;-24
2021/06/06 13:46:21;;;;;;;15.45;14.03;;;;;;;24.44;87.24;98647.86;3976987;73;27177;-24
2021/06/06 13:51:27;;;;;;;16.17;14.68;;;;;;;23.87;87.61;98645.90;3927495;75;43546;-25
2021/06/06 13:56:34;;;;;;;20.30;18.25;;;;;;;23.87;100.00;98659.10;3900045;75;44112;-23
2021/06/06 14:01:43;;;;;;;19.87;17.85;;;;;;;23.15;100.00;98656.06;3891195;74;43282;-23
2021/06/06 14:06:49;;;;;;;21.20;19.20;;;;;;;23.06;100.00;98648.70;3900534;74;43385;-23
2021/06/06 14:11:58;;;;;;;21.70;19.50;;;;;;;22.88;100.00;98640.88;3902359;74;44908;-23
2021/06/06 14:17:05;;;;;;;21.05;18.92;;;;;;;23.06;100.00;98650.93;3892492;74;43313;-23
2021/06/06 14:22:11;;;;;;;18.85;17.07;;;;;;;23.36;100.00;98650.55;3899236;75;43419;-25
2021/06/06 14:27:17;;;;;;;19.25;17.25;;;;;;;23.73;100.00;98665.94;3901758;75;44082;-23
2021/06/06 14:32:24;;;;;;;19.50;17.62;;;;;;;23.54;100.00;98665.53;3903049;74;43403;-24
2021/06/06 14:42:45;;;;;;;20.80;18.75;;;;;;;24.26;92.96;98659.91;4005792;72;27691;-23
2021/06/06 14:47:51;;;;;;;23.10;20.70;;;;;;;23.87;99.81;98659.66;3921739;73;43304;-24
2021/06/06 14:53:00;;;;;;;24.23;21.17;;;;;;;22.94;100.00;98661.06;3914839;73;43259;-23
2021/06/06 14:58:06;;;;;;;24.90;22.25;;;;;;;22.34;100.00;98660.02;3921888;75;44160;-23
2021/06/06 15:08:26;;;;;;;26.97;23.90;;;;;;;22.68;100.00;98672.77;3977436;73;27287;-22
2021/06/06 15:13:34;;;;;;;27.42;23.95;;;;;;;21.66;100.00;98682.48;3920168;74;43060;-23
2021/06/06 15:18:41;;;;;;;29.32;25.50;;;;;;;21.31;100.00;98685.75;3927863;74;43722;-23
2021/06/06 15:23:49;;;;;;;32.48;27.60;;;;;;;20.68;100.00;98676.52;3918305;75;43370;-23
2021/06/06 15:28:55;;;;;;;35.38;28.00;;;;;;;20.26;100.00;98690.64;3939346;75;44479;-23
2021/06/06 15:34:01;;;;;;;33.60;25.90;;;;;;;20.19;100.00;98682.47;3937428;75;42978;-23
2021/06/06 15:39:11;;;;;;;28.87;24.75;;;;;;;20.21;100.00;98663.12;3921661;73;44066;-23
2021/06/06 15:44:18;;;;;;;26.33;23.38;;;;;;;20.68;100.00;98668.30;3919878;75;43429;-23
2021/06/06 15:49:24;;;;;;;27.48;23.80;;;;;;;20.82;100.00;98672.66;3924393;74;44158;-23
2021/06/06 15:54:32;;;;;;;28.07;23.02;;;;;;;21.25;100.00;98670.50;3919078;75;43617;-23
2021/06/06 16:10:04;;;;;;;23.38;20.72;;;;;;;21.28;100.00;98678.83;3972990;73;27229;-23
2021/06/06 16:20:25;;;;;;;22.75;20.27;;;;;;;22.44;100.00;98671.31;3983349;73;27175;-22
2021/06/06 16:25:33;;;;;;;22.13;19.73;;;;;;;22.53;100.00;98670.45;3923503;74;43437;-24
2021/06/06 16:30:39;;;;;;;22.17;19.73;;;;;;;23.26;100.00;98666.26;3914939;74;44015;-24
2021/06/06 16:35:45;;;;;;;20.92;18.73;;;;;;;22.90;100.00;98674.97;3916991;74;43616;-23
2021/06/06 16:40:51;;;;;;;23.75;20.08;;;;;;;22.67;100.00;98676.58;3923243;74;43999;-23
2021/06/06 16:45:57;;;;;;;23.00;20.50;;;;;;;22.22;100.00;98668.22;3924648;75;44084;-23
2021/06/06 16:51:04;;;;;;;22.40;18.70;;;;;;;21.92;100.00;98665.44;3916662;75;43688;-23
2021/06/06 16:56:11;;;;;;;21.05;18.25;;;;;;;22.46;100.00;98665.06;3929879;74;43641;-24
2021/06/06 17:01:21;;;;;;;20.48;18.32;;;;;;;21.95;100.00;98662.20;3913483;74;44022;-23
2021/06/06 17:06:28;;;;;;;21.00;18.80;;;;;;;21.96;100.00;98659.77;3920445;75;44023;-24
2021/06/06 17:11:36;;;;;;;21.40;18.77;;;;;;;21.57;100.00;98670.12;3916459;74;43710;-23
2021/06/06 17:16:42;;;;;;;21.55;19.35;;;;;;;21.37;100.00;98665.66;3912454;74;44070;-23
2021/06/06 17:21:49;;;;;;;22.35;19.87;;;;;;;21.45;100.00;98665.39;3897744;74;43357;-23
2021/06/06 17:26:55;;;;;;;24.12;20.68;;;;;;;21.24;100.00;98668.00;3889698;74;43979;-23
2021/06/06 17:32:03;;;;;;;23.80;21.25;;;;;;;20.91;100.00;98673.23;3892857;75;43928;-23
2021/06/06 17:37:09;;;;;;;22.95;20.55;;;;;;;20.78;100.00;98676.89;3882152;74;43717;-23
2021/06/06 17:42:15;;;;;;;21.15;18.90;;;;;;;20.59;100.00;98680.89;3880353;75;43309;-23
2021/06/06 17:52:35;;;;;;;21.30;19.00;;;;;;;20.61;100.00;98687.50;3980747;73;27181;-19
2021/06/06 17:57:41;;;;;;;23.57;19.25;;;;;;;20.23;100.00;98695.17;3902457;74;43705;-24
2021/06/06 18:08:00;;;;;;;22.48;19.37;;;;;;;20.38;100.00;98697.66;4004659;72;27206;-23
2021/06/06 18:13:09;;;;;;;21.82;18.52;;;;;;;20.20;100.00;98704.67;4010847;73;44174;-24
2021/06/06 18:18:17;;;;;;;21.15;17.75;;;;;;;20.08;100.00;98704.52;3988297;73;44097;-23
2021/06/06 18:28:35;;;;;;;21.55;18.40;;;;;;;19.73;100.00;98708.05;3971090;73;27604;-23
2021/06/06 18:33:43;;;;;;;24.27;19.87;;;;;;;19.71;100.00;98717.30;3875106;73;43408;-23
2021/06/06 18:38:49;;;;;;;24.43;19.02;;;;;;;19.90;100.00;98727.59;3869844;73;44217;-23
2021/06/06 18:49:16;;;;;;;20.50;17.75;;;;;;;19.81;100.00;98731.08;3958814;73;27188;-23
2021/06/06 18:54:23;;;;;;;23.27;18.42;;;;;;;19.91;100.00;98738.34;3914985;74;43087;-23
2021/06/06 18:59:29;;;;;;;23.60;19.90;;;;;;;19.67;100.00;98741.18;3894532;75;43434;-23
2021/06/06 19:04:35;;;;;;;26.75;20.55;;;;;;;19.70;100.00;98741.59;3922384;74;43693;-23
2021/06/06 19:14:54;;;;;;;26.85;20.97;;;;;;;19.59;100.00;98755.90;3980165;73;27328;-23
2021/06/06 19:20:01;;;;;;;25.97;20.45;;;;;;;19.52;100.00;98758.64;3913179;74;43367;-23
2021/06/06 19:25:10;;;;;;;25.15;19.65;;;;;;;19.42;100.00;98758.23;3910876;74;42961;-23
2021/06/06 19:35:35;;;;;;;27.75;22.55;;;;;;;19.29;100.00;98772.73;3978030;73;27168;-22
2021/06/06 19:40:41;;;;;;;27.93;21.10;;;;;;;19.17;100.00;98783.42;3924545;74;43988;-24
2021/06/06 19:45:48;;;;;;;30.88;24.05;;;;;;;18.89;100.00;98789.88;3925943;74;43404;-23
2021/06/06 19:50:56;;;;;;;28.60;22.60;;;;;;;18.63;100.00;98792.02;3920682;75;42968;-23
2021/06/06 19:56:05;;;;;;;29.70;23.07;;;;;;;18.58;100.00;98805.42;3911055;74;44466;-22
2021/06/06 20:01:14;;;;;;;29.55;23.02;;;;;;;18.45;100.00;98808.41;3918100;75;42890;-23
2021/06/06 20:06:24;;;;;;;33.18;24.20;;;;;;;18.31;100.00;98816.20;3913286;74;42033;-23
2021/06/06 20:11:38;;;;;;;28.90;22.95;;;;;;;18.24;100.00;98813.97;3914661;74;43008;-22
2021/06/06 20:16:43;;;;;;;32.03;22.05;;;;;;;18.02;100.00;98816.79;3925005;75;43721;-22
2021/06/06 20:21:53;;;;;;;30.30;21.87;;;;;;;17.79;100.00;98821.95;3927197;75;43700;-21
2021/06/06 20:26:59;;;;;;;30.32;22.42;;;;;;;17.66;100.00;98828.66;3934732;74;44361;-22
2021/06/06 20:32:09;;;;;;;30.82;23.12;;;;;;;17.36;100.00;98820.13;3914930;74;44093;-22
2021/06/06 20:37:18;;;;;;;35.15;24.75;;;;;;;17.33;100.00;98823.77;3962322;74;43789;-22
2021/06/06 20:42:27;;;;;;;35.52;25.88;;;;;;;17.13;100.00;98827.13;3778168;76;43376;-22
2021/06/06 20:47:34;;;;;;;41.92;26.62;;;;;;;16.96;100.00;98818.89;3923812;75;43671;-21
2021/06/06 20:52:43;;;;;;;41.35;27.30;;;;;;;16.77;100.00;98823.88;3935515;75;44488;-22
2021/06/06 20:57:50;;;;;;;41.23;26.97;;;;;;;16.67;100.00;98827.41;3943919;74;43984;-22
2021/06/06 21:02:57;;;;;;;43.35;28.00;;;;;;;16.56;100.00;98832.84;3944677;75;42761;-21
2021/06/06 21:08:04;;;;;;;43.23;28.50;;;;;;;16.48;100.00;98844.14;3938589;75;42663;-21
2021/06/06 21:13:11;;;;;;;43.42;28.23;;;;;;;16.44;100.00;98840.13;3937723;74;44012;-22
2021/06/06 21:18:19;;;;;;;45.73;29.55;;;;;;;16.42;100.00;98844.05;3944857;74;44016;-22
2021/06/06 21:23:27;;;;;;;44.00;29.35;;;;;;;16.41;100.00;98838.28;3936463;75;43397;-22
2021/06/06 21:28:36;;;;;;;44.38;28.38;;;;;;;16.46;100.00;98843.48;3948659;75;44434;-22
2021/06/06 21:33:42;;;;;;;44.98;28.12;;;;;;;16.57;100.00;98836.73;3912050;74;44239;-22
2021/06/06 21:38:50;;;;;;;44.48;28.65;;;;;;;16.54;100.00;98841.70;3904723;75;43322;-22
2021/06/06 21:43:57;;;;;;;43.08;28.67;;;;;;;16.52;100.00;98843.77;3892533;74;43463;-22
2021/06/06 21:49:03;;;;;;;46.58;29.52;;;;;;;16.54;100.00;98849.34;3898201;75;44516;-22
2021/06/06 21:54:11;;;;;;;48.17;29.63;;;;;;;16.52;100.00;98850.06;3905551;75;44241;-21
2021/06/06 21:59:17;;;;;;;45.88;29.75;;;;;;;16.53;100.00;98850.37;3900321;75;44076;-20
2021/06/06 22:04:24;;;;;;;45.35;29.57;;;;;;;16.58;100.00;98850.66;3889108;75;43740;-22
2021/06/06 22:09:32;;;;;;;50.43;30.95;;;;;;;16.60;100.00;98855.40;3900375;75;43483;-22
2021/06/06 22:14:39;;;;;;;48.60;31.50;;;;;;;16.56;100.00;98858.16;3902711;75;44047;-21
2021/06/06 22:20:21;;;;;;;48.15;30.82;;;;;;;16.56;100.00;98856.80;3890962;74;43991;-22
2021/06/06 22:26:02;;;;;;;45.38;29.98;;;;;;;16.55;100.00;98851.56;3894961;75;43591;-22
2021/06/06 22:31:43;;;;;;;49.15;30.97;;;;;;;16.52;100.00;98855.52;3741216;78;44464;-22
2021/06/06 22:37:25;;;;;;;39.35;26.80;;;;;;;16.51;100.00;98859.26;3915688;74;44058;-22
2021/06/06 22:43:07;;;;;;;30.70;21.35;;;;;;;16.48;100.00;98864.53;3931691;75;43702;-21
2021/06/06 22:48:49;;;;;;;30.90;21.10;;;;;;;16.44;100.00;98867.33;3931942;74;43101;-22
2021/06/06 22:54:30;;;;;;;29.30;20.35;;;;;;;16.43;100.00;98861.56;3948045;75;44087;-21
2021/06/06 23:00:11;;;;;;;30.20;20.92;;;;;;;16.37;100.00;98866.91;3790593;78;44385;-21
2021/06/06 23:05:53;;;;;;;30.72;21.30;;;;;;;16.44;100.00;98865.97;3943954;74;43681;-21
2021/06/06 23:11:34;;;;;;;31.68;21.65;;;;;;;16.49;100.00;98862.68;3933971;74;44441;-21
2021/06/06 23:16:50;;;;;;;34.43;22.95;;;;;;;16.47;100.00;98857.94;3940425;75;44637;-22
2021/06/06 23:22:00;;;;;;;35.70;23.20;;;;;;;16.35;100.00;98864.35;3941477;74;43466;-22
2021/06/06 23:27:09;;;;;;;35.75;23.83;;;;;;;16.41;100.00;98851.38;3942688;75;42750;-21
2021/06/06 23:32:17;;;;;;;37.45;23.87;;;;;;;16.40;100.00;98854.30;3947542;75;43694;-21
2021/06/06 23:37:26;;;;;;;35.88;24.25;;;;;;;16.41;100.00;98854.09;3945826;74;44120;-22
2021/06/06 23:42:32;;;;;;;36.63;24.37;;;;;;;16.32;100.00;98851.16;3942739;74;44018;-21
2021/06/06 23:47:40;;;;;;;39.20;24.98;;;;;;;16.35;100.00;98846.67;3935737;75;43379;-21
